Troy, MI

11:01 AM EDT on August 18, 2017 (GMT -0400)
Troy

Weather History for KVLL - September, 2013

Change the Weather History Date:

Thursday, September 5, 2013

  Actual Average (KDET) Record (KDET)
Temperature  
Mean Temperature 64 °F -  
Max Temperature 71 °F 78 °F 99 °F (1954)
Min Temperature 56 °F 61 °F 47 °F (1957)
Degree Days  
Heating Degree Days 2    
Growing Degree Days 14 (Base 50)    
Moisture  
Dew Point 49 °F    
Average Humidity 60    
Maximum Humidity 86    
Minimum Humidity 35    
Precipitation  
Precipitation 0.00 in - - ()
Sea Level Pressure  
Sea Level Pressure 30.23 in    
Wind  
Wind Speed 6 mph (NNE)    
Max Wind Speed 12 mph    
Max Gust Speed 17 mph    
Visibility 10 miles    
Events      
Averages and records for this station are not official NWS values.
T = Trace of Precipitation, MM = Missing Value Source: NWS Daily Summary

Daily Weather History Graph

Daily Weather History Graph

Search for Another Location

Airport or City:

Trip Planner

Search our weather history database for the weather conditions in past years. The results will help you decide how hot, cold, wet, or windy it might be!

Date:

Astronomy

Sep. 05, 2013 Rise Set
Actual Time 7:02 AM EDT 7:59 PM EDT
Civil Twilight 6:33 AM EDT 8:28 PM EDT
Nautical Twilight 5:59 AM EDT 9:02 PM EDT
Astronomical Twilight 5:23 AM EDT 9:37 PM EDT
Moon 7:14 AM EDT (9/5) 7:48 PM EDT (9/5)
Length of Visible Light 13h 54m
Length of Day
12h 57m
New Moon, 0% of the Moon is Illuminated
Sep 5
New Moon
Sep 12
First Quarter
Sep 19
Full
Sep 26
Last Quarter
Oct 4
New

Hourly Weather History & Observations

Time (EDT) Temp. Dew Point Humidity Pressure Visibility Wind Dir Wind Speed Gust Speed Precip Events Conditions
12:15 AM 68.0 °F 61.9 °F 81% 30.11 in 10.0 mi NE 4.6 mph - N/A   Scattered Clouds
12:34 AM 66.7 °F 62.4 °F 86% 30.11 in 10.0 mi NE 3.5 mph - N/A   Scattered Clouds
12:55 AM 67.1 °F 62.6 °F 85% 30.12 in 10.0 mi Calm Calm - N/A   Mostly Cloudy
1:15 AM 67.1 °F 62.6 °F 85% 30.12 in 10.0 mi NNE 3.5 mph - N/A   Overcast
1:34 AM 66.7 °F 62.6 °F 86% 30.12 in 10.0 mi NNE 4.6 mph - N/A   Overcast
1:55 AM 66.6 °F 62.2 °F 86% 30.13 in 10.0 mi North 4.6 mph - N/A   Overcast
2:15 AM 66.6 °F 61.9 °F 85% 30.13 in 10.0 mi Calm Calm - N/A   Overcast
2:34 AM 66.4 °F 61.9 °F 85% 30.13 in 10.0 mi NNE 5.8 mph - N/A   Overcast
2:55 AM 66.2 °F 60.6 °F 82% 30.13 in 10.0 mi NNE 6.9 mph - N/A   Overcast
3:15 AM 65.3 °F 60.1 °F 83% 30.13 in 10.0 mi NE 6.9 mph - N/A   Mostly Cloudy
3:34 AM 64.2 °F 59.2 °F 84% 30.14 in 10.0 mi North 6.9 mph - N/A   Scattered Clouds
3:55 AM 63.3 °F 58.3 °F 84% 30.15 in 10.0 mi NNE 5.8 mph - N/A   Clear
4:14 AM 62.6 °F 58.1 °F 85% 30.16 in 10.0 mi North 5.8 mph - N/A   Scattered Clouds
4:35 AM 62.1 °F 56.7 °F 82% 30.16 in 10.0 mi NNE 3.5 mph - N/A   Scattered Clouds
4:54 AM 61.3 °F 56.7 °F 85% 30.17 in 10.0 mi Calm Calm - N/A   Clear
5:15 AM 61.5 °F 57.2 °F 86% 30.18 in 10.0 mi North 5.8 mph - N/A   Clear
5:35 AM 61.0 °F 55.6 °F 82% 30.18 in 10.0 mi North 6.9 mph - N/A   Clear
5:54 AM 60.4 °F 51.3 °F 72% 30.19 in 10.0 mi North 9.2 mph - N/A   Clear
6:15 AM 59.5 °F 51.1 °F 74% 30.20 in 10.0 mi North 4.6 mph - N/A   Clear
6:35 AM 58.5 °F 51.4 °F 77% 30.22 in 10.0 mi North 4.6 mph - N/A   Clear
6:54 AM 58.1 °F 50.7 °F 76% 30.22 in 10.0 mi North 6.9 mph - N/A   Clear
7:15 AM 57.2 °F 50.0 °F 77% 30.23 in 10.0 mi North 6.9 mph - N/A   Clear
7:34 AM 56.7 °F 48.4 °F 74% 30.23 in 10.0 mi North 5.8 mph - N/A   Clear
7:54 AM 56.5 °F 47.3 °F 71% 30.23 in 10.0 mi North 5.8 mph - N/A   Clear
8:15 AM 56.7 °F 46.0 °F 68% 30.24 in 10.0 mi NNW 5.8 mph - N/A   Clear
8:34 AM 57.4 °F 46.6 °F 67% 30.25 in 10.0 mi NNW 5.8 mph - N/A   Clear
8:55 AM 58.1 °F 46.0 °F 64% 30.25 in 10.0 mi NNW 10.4 mph - N/A   Clear
9:15 AM 59.0 °F 46.4 °F 63% 30.25 in 10.0 mi North 9.2 mph - N/A   Clear
9:34 AM 59.4 °F 46.8 °F 63% 30.25 in 10.0 mi North 9.2 mph 16.1 mph N/A   Clear
9:55 AM 60.4 °F 47.1 °F 61% 30.26 in 10.0 mi North 10.4 mph - N/A   Clear
10:15 AM 61.3 °F 47.8 °F 61% 30.27 in 10.0 mi North 9.2 mph 16.1 mph N/A   Clear
10:34 AM 62.6 °F 48.6 °F 60% 30.27 in 10.0 mi North 8.1 mph - N/A   Clear
10:55 AM 64.0 °F 48.7 °F 57% 30.27 in 10.0 mi NE 10.4 mph - N/A   Clear
11:15 AM 64.9 °F 45.1 °F 49% 30.27 in 10.0 mi North 9.2 mph - N/A   Clear
11:34 AM 65.3 °F 45.3 °F 48% 30.27 in 10.0 mi North 9.2 mph - N/A   Clear
11:55 AM 65.8 °F 43.0 °F 43% 30.27 in 10.0 mi North 6.9 mph - N/A   Clear
12:14 PM 66.9 °F 44.4 °F 44% 30.27 in 10.0 mi North 5.8 mph - N/A   Clear
12:35 PM 66.6 °F 45.1 °F 46% 30.27 in 10.0 mi NNE 6.9 mph - N/A   Clear
12:55 PM 68.5 °F 44.8 °F 42% 30.27 in 10.0 mi NNW 11.5 mph 16.1 mph N/A   Clear
1:14 PM 68.0 °F 45.1 °F 44% 30.27 in 10.0 mi NNE 6.9 mph - N/A   Clear
1:35 PM 69.4 °F 46.2 °F 43% 30.27 in 10.0 mi NNE 8.1 mph - N/A   Clear
1:54 PM 69.8 °F 45.9 °F 42% 30.27 in 10.0 mi NNE 8.1 mph 17.3 mph N/A   Clear
2:15 PM 69.8 °F 44.2 °F 40% 30.26 in 10.0 mi North 6.9 mph - N/A   Clear
2:35 PM 70.7 °F 43.7 °F 38% 30.26 in 10.0 mi NNE 10.4 mph - N/A   Clear
2:54 PM 70.3 °F 44.1 °F 39% 30.27 in 10.0 mi NNW 5.8 mph - N/A   Clear
3:15 PM 71.6 °F 44.1 °F 37% 30.26 in 10.0 mi NNE 5.8 mph - N/A   Clear
3:34 PM 71.2 °F 44.1 °F 38% 30.25 in 10.0 mi North 5.8 mph - N/A   Clear
3:55 PM 71.2 °F 44.2 °F 38% 30.25 in 10.0 mi NNE 9.2 mph - N/A   Clear
4:14 PM 71.8 °F 43.7 °F 36% 30.25 in 10.0 mi Calm Calm - N/A   Clear
4:34 PM 71.4 °F 42.6 °F 35% 30.25 in 10.0 mi NNW 6.9 mph - N/A   Clear
4:55 PM 71.4 °F 42.4 °F 35% 30.25 in 10.0 mi NE 6.9 mph - N/A   Clear
5:14 PM 70.9 °F 43.3 °F 37% 30.25 in 10.0 mi ESE 3.5 mph - N/A   Clear
5:35 PM 70.9 °F 43.2 °F 37% 30.25 in 10.0 mi NNW 4.6 mph - N/A   Clear
5:55 PM 71.1 °F 44.2 °F 38% 30.26 in 10.0 mi NE 6.9 mph - N/A   Clear
6:14 PM 70.7 °F 43.3 °F 37% 30.25 in 10.0 mi North 6.9 mph - N/A   Clear
6:35 PM 70.9 °F 43.7 °F 38% 30.26 in 10.0 mi North 5.8 mph - N/A   Clear
6:55 PM 70.0 °F 43.7 °F 39% 30.26 in 10.0 mi NE 9.2 mph - N/A   Clear
7:14 PM 68.9 °F 45.3 °F 43% 30.26 in 10.0 mi NNE 5.8 mph - N/A   Clear
7:35 PM 67.5 °F 44.8 °F 44% 30.26 in 10.0 mi NNE 9.2 mph - N/A   Clear
7:55 PM 66.7 °F 44.8 °F 45% 30.26 in 10.0 mi NE 6.9 mph - N/A   Clear
8:14 PM 64.4 °F 46.4 °F 52% 30.27 in 10.0 mi ENE 9.2 mph - N/A   Clear
8:35 PM 63.3 °F 46.4 °F 54% 30.28 in 10.0 mi ENE 10.4 mph - N/A   Clear
8:55 PM 61.7 °F 45.9 °F 56% 30.28 in 10.0 mi ENE 11.5 mph - N/A   Clear
9:14 PM 60.8 °F 45.7 °F 57% 30.29 in 10.0 mi ENE 11.5 mph - N/A   Clear
9:35 PM 60.1 °F 45.1 °F 58% 30.30 in 10.0 mi ENE 8.1 mph - N/A   Clear
9:54 PM 59.5 °F 44.8 °F 58% 30.30 in 10.0 mi ENE 10.4 mph - N/A   Clear
10:14 PM 59.2 °F 44.1 °F 57% 30.30 in 10.0 mi ENE 6.9 mph - N/A   Clear
10:34 PM 59.0 °F 44.1 °F 58% 30.30 in 10.0 mi East 3.5 mph - N/A   Clear
10:54 PM 58.3 °F 45.0 °F 61% 30.30 in 10.0 mi Calm Calm - N/A   Clear
11:15 PM 58.1 °F 44.2 °F 60% 30.30 in 10.0 mi ENE 3.5 mph - N/A   Clear
11:34 PM 57.4 °F 44.6 °F 62% 30.30 in 10.0 mi Calm Calm - N/A   Clear
11:55 PM 56.5 °F 44.6 °F 64% 30.30 in 10.0 mi Calm Calm - N/A   Clear